Time;durP1;ratioP1;P1;durP2;ratioP2;P2;SDS_P1;SDS_P2;PMS_P1;PMS_P2;Temp;Humidity;BMP_temperature;BMP_pressure;BME280_temperature;BME280_humidity;BME280_pressure;Samples;Min_cycle;Max_cycle;Signal;HPM_P1;HPM_P2
2021/03/19 04:04:34;;;;;;;53.42;9.35;;;;;;;0.71;100.00;99594.25;1744874;78;21141;-61
2021/03/19 04:07:02;;;;;;;55.35;11.65;;;;;;;0.70;100.00;99597.77;1774908;80;21491;-60
2021/03/19 04:09:31;;;;;;;58.60;11.12;;;;;;;0.68;100.00;99595.34;1834089;77;21382;-60
2021/03/19 04:12:00;;;;;;;55.83;11.15;;;;;;;0.67;100.00;99598.84;1833770;77;21601;-61
2021/03/19 04:14:28;;;;;;;68.85;12.75;;;;;;;0.66;100.00;99602.83;1837674;77;21105;-60
2021/03/19 04:16:58;;;;;;;54.88;10.43;;;;;;;0.64;100.00;99602.14;1838297;77;21586;-61
2021/03/19 04:19:26;;;;;;;49.93;11.45;;;;;;;0.65;100.00;99605.88;1833950;77;21206;-60
2021/03/19 04:21:55;;;;;;;65.40;11.35;;;;;;;0.66;100.00;99610.05;1838058;77;21425;-65
2021/03/19 04:24:23;;;;;;;61.75;11.38;;;;;;;0.70;100.00;99610.11;1828749;77;21556;-60
2021/03/19 04:26:51;;;;;;;52.80;10.70;;;;;;;0.73;100.00;99614.98;1826005;77;21127;-60
2021/03/19 04:29:19;;;;;;;60.12;13.65;;;;;;;0.76;100.00;99615.64;1832502;77;21607;-60
2021/03/19 04:31:48;;;;;;;61.60;15.18;;;;;;;0.79;100.00;99618.74;1838152;77;20981;-66
2021/03/19 04:34:16;;;;;;;54.65;11.73;;;;;;;0.81;100.00;99624.56;1831802;77;21646;-60
2021/03/19 04:36:47;;;;;;;75.75;14.07;;;;;;;0.83;100.00;99625.70;1829238;77;20975;-61
2021/03/19 04:39:18;;;;;;;48.92;11.68;;;;;;;0.83;100.00;99624.41;1829069;77;21430;-61
2021/03/19 04:41:50;;;;;;;53.95;11.75;;;;;;;0.87;100.00;99621.91;1839183;77;21547;-66
2021/03/19 04:44:19;;;;;;;59.73;11.63;;;;;;;0.92;100.00;99630.03;1834659;77;21215;-61
2021/03/19 04:46:48;;;;;;;54.27;12.73;;;;;;;0.95;100.00;99629.77;1830336;77;21254;-61
2021/03/19 04:49:16;;;;;;;61.25;12.50;;;;;;;0.98;100.00;99630.75;1836187;77;21178;-61
2021/03/19 04:51:44;;;;;;;52.73;10.85;;;;;;;1.00;100.00;99634.48;1835942;77;21543;-62
2021/03/19 04:54:12;;;;;;;63.70;12.40;;;;;;;1.02;100.00;99639.80;1832167;77;21199;-61
2021/03/19 04:56:40;;;;;;;58.50;10.85;;;;;;;1.05;100.00;99634.87;1832748;77;21089;-62
2021/03/19 04:59:09;;;;;;;60.10;11.85;;;;;;;1.05;100.00;99640.81;1834667;77;22416;-62
2021/03/19 05:01:56;;;;;;;61.33;11.83;;;;;;;1.03;100.00;99641.44;1826946;77;21138;-66
2021/03/19 05:04:25;;;;;;;71.50;15.30;;;;;;;1.01;100.00;99643.31;1832305;77;21548;-62
2021/03/19 05:07:01;;;;;;;47.53;10.88;;;;;;;1.01;100.00;99647.16;1837293;77;21009;-61
2021/03/19 05:09:29;;;;;;;67.72;12.50;;;;;;;1.03;100.00;99647.05;1838516;77;21168;-62
2021/03/19 05:11:58;;;;;;;48.63;12.60;;;;;;;1.04;100.00;99649.47;1832186;77;21480;-62
2021/03/19 05:14:26;;;;;;;48.42;12.15;;;;;;;1.05;100.00;99652.36;1825112;77;21009;-61
2021/03/19 05:16:54;;;;;;;51.18;11.60;;;;;;;1.08;100.00;99657.22;1838234;77;21207;-60
2021/03/19 05:19:22;;;;;;;47.85;10.90;;;;;;;1.12;100.00;99663.70;1832250;77;21105;-61
2021/03/19 05:21:51;;;;;;;45.43;10.88;;;;;;;1.16;100.00;99666.33;1833628;77;21645;-59
2021/03/19 05:24:19;;;;;;;49.90;12.25;;;;;;;1.19;100.00;99667.34;1839317;77;22347;-61
2021/03/19 05:26:47;;;;;;;55.12;10.20;;;;;;;1.17;100.00;99664.57;1835583;77;21192;-61
2021/03/19 05:29:14;;;;;;;54.27;11.73;;;;;;;1.17;100.00;99667.94;1836849;77;20971;-63
2021/03/19 05:31:43;;;;;;;43.10;12.93;;;;;;;1.19;100.00;99675.05;1833790;77;21204;-61
2021/03/19 05:34:12;;;;;;;67.90;12.95;;;;;;;1.21;100.00;99673.16;1826421;77;21091;-61
2021/03/19 05:36:40;;;;;;;46.18;11.30;;;;;;;1.23;100.00;99683.77;1829273;77;22995;-61
2021/03/19 05:39:09;;;;;;;43.40;11.28;;;;;;;1.24;100.00;99680.23;1836810;77;21239;-67
2021/03/19 05:41:38;;;;;;;61.85;12.50;;;;;;;1.25;100.00;99685.26;1827679;77;21549;-62
2021/03/19 05:44:19;;;;;;;35.50;10.95;;;;;;;1.27;100.00;99678.69;1820305;77;21606;-62
2021/03/19 05:46:51;;;;;;;46.07;11.70;;;;;;;1.28;100.00;99686.72;1830238;77;21121;-67
2021/03/19 05:49:24;;;;;;;44.83;11.68;;;;;;;1.28;100.00;99686.72;1843555;77;21245;-60
2021/03/19 05:51:54;;;;;;;44.60;11.20;;;;;;;1.33;100.00;99693.55;1834364;77;21186;-61
2021/03/19 05:54:41;;;;;;;56.53;12.73;;;;;;;1.39;100.00;99700.69;1831193;77;21137;-60
2021/03/19 05:57:19;;;;;;;51.95;12.05;;;;;;;1.43;100.00;99699.47;1833507;77;21104;-61
2021/03/19 05:59:49;;;;;;;56.02;13.38;;;;;;;1.51;100.00;99703.91;1836121;77;21198;-65
2021/03/19 06:02:22;;;;;;;52.40;12.55;;;;;;;1.55;100.00;99698.36;1836284;77;21593;-58
2021/03/19 06:05:01;;;;;;;49.90;12.00;;;;;;;1.61;100.00;99703.43;1789428;77;21840;-59
2021/03/19 06:07:44;;;;;;;45.70;9.43;;;;;;;1.74;100.00;99696.69;1827949;77;21141;-59
2021/03/19 06:10:38;;;;;;;47.83;11.57;;;;;;;1.85;100.00;99710.18;1832503;77;21199;-60
2021/03/19 06:13:23;;;;;;;57.03;12.65;;;;;;;2.00;100.00;99711.82;1835635;77;21568;-60
2021/03/19 06:15:54;;;;;;;57.88;11.53;;;;;;;2.11;100.00;99713.41;1837528;77;21240;-58
2021/03/19 06:18:42;;;;;;;44.83;11.33;;;;;;;2.16;100.00;99717.67;1833886;77;22570;-59
2021/03/19 06:21:15;;;;;;;40.08;10.53;;;;;;;2.22;100.00;99719.66;1828693;77;21714;-62
2021/03/19 06:24:25;;;;;;;51.23;11.63;;;;;;;2.26;100.00;99719.70;1831780;77;20989;-60
2021/03/19 06:26:54;;;;;;;62.33;13.40;;;;;;;2.28;100.00;99726.00;1804465;77;21513;-61
2021/03/19 06:29:27;;;;;;;40.12;11.10;;;;;;;2.39;100.00;99729.67;1825572;77;22523;-61
2021/03/19 06:32:19;;;;;;;48.98;11.18;;;;;;;2.42;100.00;99730.20;1839180;77;21010;-61
2021/03/19 06:34:57;;;;;;;47.45;10.60;;;;;;;2.51;100.00;99723.38;1835167;77;21956;-61
2021/03/19 06:37:35;;;;;;;42.53;12.45;;;;;;;2.68;100.00;99720.00;1845839;77;21117;-60
2021/03/19 06:40:37;;;;;;;43.75;11.45;;;;;;;2.80;100.00;99723.66;1843459;77;21026;-62
2021/03/19 06:43:24;;;;;;;47.17;10.82;;;;;;;2.82;100.00;99720.47;1835994;77;21408;-61
2021/03/19 06:46:15;;;;;;;42.62;10.15;;;;;;;2.80;100.00;99726.23;1831553;77;21123;-61
2021/03/19 06:48:55;;;;;;;43.73;10.18;;;;;;;2.71;100.00;99723.25;1825111;77;21053;-68
2021/03/19 06:51:51;;;;;;;45.05;11.38;;;;;;;2.66;100.00;99723.22;1830115;77;21443;-61
2021/03/19 06:54:27;;;;;;;43.98;9.88;;;;;;;2.65;100.00;99736.20;1828117;77;21602;-60
2021/03/19 06:57:10;;;;;;;45.88;13.10;;;;;;;2.71;100.00;99728.41;1833740;77;22089;-60
2021/03/19 06:59:56;;;;;;;54.85;11.90;;;;;;;2.85;100.00;99735.15;1842029;77;21046;-60
2021/03/19 07:02:50;;;;;;;46.88;12.40;;;;;;;2.95;100.00;99726.53;1831138;77;21175;-60
2021/03/19 07:06:08;;;;;;;46.95;12.65;;;;;;;3.00;100.00;99730.30;1836369;77;21704;-61
2021/03/19 07:09:06;;;;;;;41.65;10.20;;;;;;;2.98;100.00;99727.53;1828853;77;21037;-60
2021/03/19 07:12:04;;;;;;;47.88;10.53;;;;;;;2.92;100.00;99732.81;1834608;77;21370;-60
2021/03/19 07:14:55;;;;;;;37.15;11.10;;;;;;;2.96;100.00;99735.42;1838895;77;21983;-60
2021/03/19 07:18:09;;;;;;;50.67;12.03;;;;;;;3.04;100.00;99736.77;1826133;77;21657;-60
2021/03/19 07:20:53;;;;;;;44.73;11.28;;;;;;;3.06;100.00;99734.84;1839305;77;21208;-60
2021/03/19 07:24:20;;;;;;;43.03;12.17;;;;;;;3.10;100.00;99736.17;1826610;78;23571;-59
2021/03/19 07:26:53;;;;;;;47.78;10.88;;;;;;;3.13;100.00;99739.74;1808954;79;20987;-60
2021/03/19 07:29:34;;;;;;;45.12;11.83;;;;;;;3.17;100.00;99739.77;1802125;78;22155;-60
2021/03/19 07:32:33;;;;;;;41.05;10.68;;;;;;;3.13;100.00;99741.03;1794314;79;21053;-62
2021/03/19 07:35:27;;;;;;;44.95;12.28;;;;;;;3.09;100.00;99738.91;1795917;79;21590;-62
2021/03/19 07:38:37;;;;;;;52.75;11.10;;;;;;;3.02;100.00;99739.96;1790761;78;21667;-59
2021/03/19 07:41:55;;;;;;;40.30;9.85;;;;;;;2.97;100.00;99741.37;1793188;79;21638;-60
2021/03/19 07:44:56;;;;;;;50.73;12.07;;;;;;;2.97;100.00;99741.37;1808331;79;21332;-61
2021/03/19 07:47:47;;;;;;;48.92;10.43;;;;;;;2.96;100.00;99748.29;1728975;82;21050;-67
2021/03/19 07:51:03;;;;;;;51.95;12.07;;;;;;;2.95;100.00;99740.70;1729845;82;21567;-60
2021/03/19 07:53:52;;;;;;;44.10;11.35;;;;;;;2.95;100.00;99746.65;1730662;82;21497;-61
2021/03/19 07:56:37;;;;;;;50.75;14.33;;;;;;;3.02;100.00;99748.97;1723376;82;21189;-64
2021/03/19 07:59:16;;;;;;;43.73;13.25;;;;;;;3.02;100.00;99747.69;1727464;82;21209;-61
2021/03/19 08:01:56;;;;;;;48.75;10.55;;;;;;;3.08;100.00;99748.40;1699873;82;21223;-60
2021/03/19 08:04:50;;;;;;;44.57;9.60;;;;;;;3.20;100.00;99751.56;1826176;78;23387;-59
2021/03/19 08:07:54;;;;;;;41.98;11.88;;;;;;;3.25;100.00;99753.20;1796768;77;21082;-60
2021/03/19 08:10:45;;;;;;;44.08;9.55;;;;;;;3.42;100.00;99750.30;1782758;77;21198;-59
2021/03/19 08:13:31;;;;;;;35.40;9.70;;;;;;;3.58;100.00;99756.85;1791259;79;21747;-59
2021/03/19 08:16:21;;;;;;;33.92;9.10;;;;;;;3.69;100.00;99757.58;1780209;79;21096;-60
2021/03/19 08:19:09;;;;;;;34.53;9.03;;;;;;;3.79;100.00;99761.69;1793004;79;21616;-61
2021/03/19 08:21:55;;;;;;;30.68;9.18;;;;;;;3.89;100.00;99759.79;1794530;79;20979;-61
2021/03/19 08:25:03;;;;;;;48.70;16.75;;;;;;;3.95;100.00;99761.45;1781837;79;21915;-61
2021/03/19 08:27:53;;;;;;;37.45;10.38;;;;;;;3.97;100.00;99764.19;1798333;79;21032;-60
2021/03/19 08:30:57;;;;;;;34.67;9.83;;;;;;;4.11;100.00;99764.92;1831788;78;23109;-62
2021/03/19 08:33:58;;;;;;;28.17;9.30;;;;;;;4.13;100.00;99761.72;1796425;79;20911;-62
2021/03/19 08:36:46;;;;;;;30.65;9.00;;;;;;;4.21;100.00;99768.69;1792075;79;21377;-60
2021/03/19 08:39:24;;;;;;;31.77;8.98;;;;;;;4.17;100.00;99766.09;1743206;80;21008;-60
2021/03/19 08:42:05;;;;;;;34.35;10.08;;;;;;;4.07;100.00;99776.98;1735741;82;21615;-61
2021/03/19 08:44:36;;;;;;;34.40;10.03;;;;;;;4.03;100.00;99776.97;1757894;80;21003;-60
2021/03/19 08:47:33;;;;;;;48.52;11.90;;;;;;;3.96;100.00;99771.60;1753079;80;21014;-60
2021/03/19 08:50:26;;;;;;;38.50;11.10;;;;;;;3.89;100.00;99777.03;1757744;80;21199;-60
2021/03/19 08:53:18;;;;;;;43.65;9.53;;;;;;;3.84;100.00;99781.36;1742981;80;21191;-62
2021/03/19 08:56:12;;;;;;;42.70;11.63;;;;;;;3.90;100.00;99783.80;1746118;82;21310;-59
2021/03/19 08:58:51;;;;;;;38.75;11.97;;;;;;;3.99;100.00;99792.42;1726137;82;21220;-61
2021/03/19 09:01:58;;;;;;;38.05;10.72;;;;;;;4.07;100.00;99796.33;1750597;80;21209;-59
2021/03/19 09:05:01;;;;;;;48.15;12.55;;;;;;;4.08;100.00;99800.04;1728700;82;22144;-62
2021/03/19 09:07:37;;;;;;;43.65;15.08;;;;;;;4.01;100.00;99799.03;1729460;82;21687;-61
2021/03/19 09:10:20;;;;;;;45.67;13.48;;;;;;;3.99;100.00;99803.55;1738041;81;21208;-61
2021/03/19 09:13:07;;;;;;;36.05;11.88;;;;;;;4.01;100.00;99804.19;1745482;81;20991;-63
2021/03/19 09:15:34;;;;;;;34.23;9.53;;;;;;;4.00;100.00;99809.02;1744775;81;21267;-60
2021/03/19 09:18:47;;;;;;;35.43;9.58;;;;;;;4.02;100.00;99815.33;1740597;81;21249;-62
2021/03/19 09:21:31;;;;;;;36.13;11.15;;;;;;;4.00;100.00;99810.31;1727775;81;21647;-62
2021/03/19 09:24:06;;;;;;;24.45;9.53;;;;;;;4.00;100.00;99816.76;1733139;81;21018;-60
2021/03/19 09:26:47;;;;;;;25.88;8.68;;;;;;;4.02;100.00;99813.56;1741918;81;20994;-60
2021/03/19 09:29:23;;;;;;;27.90;8.50;;;;;;;3.92;100.00;99821.06;1766803;80;21086;-62
2021/03/19 09:31:59;;;;;;;27.52;9.30;;;;;;;3.90;100.00;99813.45;1765417;80;22080;-60
2021/03/19 09:34:45;;;;;;;32.23;9.73;;;;;;;3.90;100.00;99819.91;1758667;80;21209;-61
2021/03/19 09:37:40;;;;;;;39.48;10.75;;;;;;;3.96;100.00;99822.38;1808262;78;21639;-61
2021/03/19 09:40:14;;;;;;;27.70;9.30;;;;;;;4.00;100.00;99824.49;1794542;78;21481;-60
2021/03/19 09:42:49;;;;;;;22.02;8.18;;;;;;;4.05;100.00;99826.61;1795869;78;21129;-61
2021/03/19 09:45:25;;;;;;;29.42;9.20;;;;;;;4.01;100.00;99826.10;1743890;80;22140;-62
2021/03/19 09:48:16;;;;;;;24.75;9.30;;;;;;;3.92;100.00;99823.16;1738379;82;21590;-61
2021/03/19 09:50:57;;;;;;;21.65;7.80;;;;;;;3.93;100.00;99818.31;1744615;81;21224;-62
2021/03/19 09:53:35;;;;;;;23.73;8.30;;;;;;;3.94;100.00;99825.11;1748735;81;21202;-63
2021/03/19 09:56:19;;;;;;;23.30;8.70;;;;;;;3.96;100.00;99828.34;1756796;81;21614;-61
2021/03/19 09:58:52;;;;;;;23.00;7.90;;;;;;;3.99;100.00;99826.75;1741295;80;22352;-64
2021/03/19 10:01:40;;;;;;;27.75;12.37;;;;;;;4.03;100.00;99834.52;1810025;79;21635;-61
2021/03/19 10:04:14;;;;;;;25.97;10.88;;;;;;;4.11;100.00;99834.56;1799587;78;21148;-63
2021/03/19 10:06:47;;;;;;;35.55;13.08;;;;;;;4.19;100.00;99838.16;1791112;78;20998;-63
2021/03/19 10:09:22;;;;;;;25.02;9.35;;;;;;;4.25;100.00;99837.56;1806225;79;21444;-63
2021/03/19 10:12:22;;;;;;;22.02;8.50;;;;;;;4.31;100.00;99839.03;1800423;78;21353;-63
2021/03/19 10:14:53;;;;;;;32.80;9.83;;;;;;;4.31;100.00;99843.38;1714277;82;21212;-63
2021/03/19 10:17:28;;;;;;;25.75;8.48;;;;;;;4.20;100.00;99841.06;1711325;83;21085;-64
2021/03/19 10:20:21;;;;;;;17.77;6.87;;;;;;;4.10;100.00;99841.98;1711930;83;20974;-64
2021/03/19 10:22:52;;;;;;;20.25;8.20;;;;;;;4.11;100.00;99838.91;1710520;82;21567;-64
2021/03/19 10:25:26;;;;;;;20.72;8.80;;;;;;;4.14;100.00;99843.30;1711845;83;22074;-62
2021/03/19 10:27:59;;;;;;;19.48;7.25;;;;;;;4.20;100.00;99837.99;1711827;82;21172;-63
2021/03/19 10:30:37;;;;;;;20.95;7.10;;;;;;;4.25;100.00;99839.66;1709327;83;21050;-63
2021/03/19 10:33:16;;;;;;;18.57;7.08;;;;;;;4.26;100.00;99846.91;1705084;82;21096;-63
2021/03/19 10:35:58;;;;;;;23.50;7.47;;;;;;;4.31;100.00;99840.80;1712223;82;21749;-63
2021/03/19 10:38:43;;;;;;;;;;;;;;;4.26;100.00;99837.88;1716973;82;21268;-63
2021/03/19 10:41:40;;;;;;;20.32;7.03;;;;;;;4.26;100.00;99839.17;1710249;82;20311;-69
2021/03/19 10:44:13;;;;;;;22.37;8.15;;;;;;;4.17;100.00;99846.06;1710515;82;21263;-62
2021/03/19 10:46:53;;;;;;;20.90;8.50;;;;;;;4.09;100.00;99838.24;1709519;82;21204;-63
2021/03/19 10:49:50;;;;;;;25.52;8.90;;;;;;;4.04;100.00;99845.16;1708145;83;21070;-62
2021/03/19 10:52:35;;;;;;;25.27;7.35;;;;;;;3.98;100.00;99847.06;1710741;83;21247;-66
2021/03/19 10:55:20;;;;;;;22.13;8.15;;;;;;;3.87;100.00;99842.14;1701257;83;21207;-62
2021/03/19 10:57:56;;;;;;;21.73;8.33;;;;;;;3.81;100.00;99849.98;1708904;83;21207;-65
2021/03/19 11:00:31;;;;;;;20.72;8.63;;;;;;;3.75;100.00;99849.76;1708593;83;21192;-61
2021/03/19 11:03:05;;;;;;;23.73;8.78;;;;;;;3.70;100.00;99851.50;1708496;83;21121;-61
2021/03/19 11:06:01;;;;;;;18.80;7.25;;;;;;;3.73;100.00;99852.98;1708507;83;21284;-61
2021/03/19 11:08:30;;;;;;;24.25;8.28;;;;;;;3.75;100.00;99858.33;1708858;83;21140;-62
2021/03/19 11:10:58;;;;;;;22.17;8.28;;;;;;;3.76;100.00;99854.78;1664280;84;21588;-63
2021/03/19 11:13:31;;;;;;;21.68;7.97;;;;;;;3.80;100.00;99859.16;1682761;82;21543;-62
2021/03/19 11:16:03;;;;;;;22.42;8.73;;;;;;;3.82;100.00;99861.91;1704862;83;21141;-62
2021/03/19 11:18:38;;;;;;;;;;;;;;;3.85;100.00;99860.32;1711899;83;21277;-62
2021/03/19 11:21:12;;;;;;;20.00;8.55;;;;;;;3.88;100.00;99861.80;1706876;83;20347;-62
2021/03/19 11:24:04;;;;;;;29.20;11.25;;;;;;;3.84;100.00;99863.87;1712455;83;21212;-64
2021/03/19 11:26:35;;;;;;;29.70;9.28;;;;;;;3.83;100.00;99863.55;1714100;83;21144;-61
2021/03/19 11:29:18;;;;;;;32.60;10.03;;;;;;;3.87;100.00;99867.92;1714033;83;21002;-61
2021/03/19 11:32:17;;;;;;;22.45;8.58;;;;;;;3.82;100.00;99870.92;1708619;82;22393;-62
2021/03/19 11:34:52;;;;;;;24.52;8.95;;;;;;;3.80;100.00;99879.79;1713128;82;21192;-61
2021/03/19 11:37:28;;;;;;;35.92;9.75;;;;;;;3.80;100.00;99872.86;1710297;82;21072;-62
2021/03/19 11:40:08;;;;;;;26.20;10.03;;;;;;;3.84;100.00;99882.40;1714435;83;21022;-62
2021/03/19 11:42:50;;;;;;;26.80;8.73;;;;;;;3.81;100.00;99883.98;1711552;83;21650;-62
2021/03/19 11:45:22;;;;;;;28.50;9.13;;;;;;;3.70;100.00;99882.43;1711130;83;21228;-68
2021/03/19 11:48:04;;;;;;;26.87;8.88;;;;;;;3.57;100.00;99885.39;1712553;83;21618;-61
2021/03/19 11:50:38;;;;;;;25.48;8.50;;;;;;;3.54;100.00;99887.45;1706940;83;21232;-61
2021/03/19 11:53:12;;;;;;;23.73;7.95;;;;;;;3.51;100.00;99886.44;1707994;83;21232;-63
2021/03/19 11:55:48;;;;;;;24.15;9.53;;;;;;;3.49;100.00;99892.23;1711164;83;21144;-61
2021/03/19 11:58:19;;;;;;;31.75;9.33;;;;;;;3.49;100.00;99891.76;1711513;83;21367;-61
2021/03/19 12:00:47;;;;;;;32.53;10.68;;;;;;;3.49;100.00;99894.33;1701489;82;21254;-67
2021/03/19 12:03:42;;;;;;;26.25;9.03;;;;;;;3.51;100.00;99895.46;1713104;82;21420;-62
2021/03/19 12:06:12;;;;;;;34.15;9.80;;;;;;;3.53;100.00;99898.23;1719035;82;21140;-62
2021/03/19 12:08:41;;;;;;;30.65;9.55;;;;;;;3.55;100.00;99901.46;1715136;82;21082;-62
2021/03/19 12:11:33;;;;;;;29.15;8.65;;;;;;;3.52;100.00;99898.36;1714836;82;21211;-61
2021/03/19 12:14:02;;;;;;;23.15;8.70;;;;;;;3.48;100.00;99900.42;1674425;84;21666;-66
2021/03/19 12:16:31;;;;;;;30.25;9.43;;;;;;;3.38;100.00;99902.27;1676132;83;21736;-62
2021/03/19 12:19:00;;;;;;;30.02;10.18;;;;;;;3.35;100.00;99906.42;1674466;84;21021;-62
2021/03/19 12:21:28;;;;;;;32.38;9.10;;;;;;;3.34;100.00;99913.34;1676065;83;21306;-62
2021/03/19 12:24:10;;;;;;;26.37;8.98;;;;;;;3.36;100.00;99916.56;1572742;89;21739;-64
2021/03/19 12:26:38;;;;;;;33.25;10.43;;;;;;;3.39;100.00;99916.77;1572106;89;21292;-62
2021/03/19 12:29:07;;;;;;;28.23;10.58;;;;;;;3.37;100.00;99923.36;1574409;89;21305;-63
2021/03/19 12:31:35;;;;;;;25.82;10.82;;;;;;;3.32;100.00;99917.81;1571596;89;21246;-62
2021/03/19 12:34:04;;;;;;;26.70;9.75;;;;;;;3.33;100.00;99925.89;1571102;89;21680;-62
2021/03/19 12:36:32;;;;;;;35.73;9.75;;;;;;;3.33;100.00;99926.34;1573461;89;21309;-62
2021/03/19 12:39:01;;;;;;;28.50;9.03;;;;;;;3.25;100.00;99927.06;1573346;89;21322;-62
2021/03/19 12:41:30;;;;;;;25.62;10.70;;;;;;;3.17;100.00;99929.07;1564842;89;21261;-63
2021/03/19 12:43:59;;;;;;;35.17;10.40;;;;;;;3.14;100.00;99928.09;1570524;89;21693;-70
2021/03/19 12:46:28;;;;;;;33.73;11.18;;;;;;;3.14;100.00;99934.53;1575800;89;21289;-61
2021/03/19 12:48:57;;;;;;;30.40;10.95;;;;;;;3.09;100.00;99933.32;1664567;82;21406;-63
2021/03/19 12:51:25;;;;;;;32.48;11.15;;;;;;;3.07;100.00;99933.48;1706039;82;21588;-61
2021/03/19 12:53:54;;;;;;;28.87;9.95;;;;;;;3.10;100.00;99933.65;1707913;82;21087;-67
2021/03/19 12:56:23;;;;;;;28.20;12.00;;;;;;;3.13;100.00;99941.91;1711534;82;21159;-61
2021/03/19 12:58:51;;;;;;;27.30;11.03;;;;;;;3.17;100.00;99939.86;1715029;82;21154;-61
2021/03/19 13:01:40;;;;;;;27.00;11.65;;;;;;;3.16;100.00;99936.47;1717900;82;21427;-61
2021/03/19 13:04:08;;;;;;;30.05;9.25;;;;;;;3.16;100.00;99946.77;1678451;84;21300;-61
2021/03/19 13:06:38;;;;;;;29.50;9.33;;;;;;;3.12;100.00;99945.44;1680382;84;21154;-63
2021/03/19 13:09:13;;;;;;;34.50;10.30;;;;;;;3.11;100.00;99941.73;1673589;84;21142;-63
2021/03/19 13:11:38;;;;;;;20.65;9.15;;;;;;;3.12;100.00;99945.92;1673651;84;21144;-62
2021/03/19 13:14:08;;;;;;;25.25;9.78;;;;;;;3.13;100.00;99948.34;1674155;84;21394;-61
2021/03/19 13:16:37;;;;;;;29.50;9.75;;;;;;;3.14;100.00;99953.02;1677237;84;21292;-65
2021/03/19 13:19:07;;;;;;;30.32;10.53;;;;;;;3.16;100.00;99951.92;1675433;83;21263;-61
2021/03/19 13:21:35;;;;;;;29.72;9.83;;;;;;;3.13;100.00;99951.40;1677681;84;21242;-62
2021/03/19 13:24:05;;;;;;;23.60;9.53;;;;;;;3.11;100.00;99952.84;1680211;83;21179;-63
2021/03/19 13:26:34;;;;;;;32.30;10.32;;;;;;;3.11;100.00;99946.40;1680221;84;21207;-63
2021/03/19 13:29:02;;;;;;;32.30;10.75;;;;;;;3.11;100.00;99950.75;1679465;84;21258;-63
2021/03/19 13:31:31;;;;;;;34.60;9.88;;;;;;;3.08;100.00;99947.97;1679666;83;21631;-62
2021/03/19 13:34:00;;;;;;;28.47;9.65;;;;;;;3.06;100.00;99950.34;1679372;85;21016;-69
2021/03/19 13:36:28;;;;;;;33.15;10.03;;;;;;;3.04;100.00;99944.53;1681674;84;21202;-64
2021/03/19 13:38:56;;;;;;;185.48;116.90;;;;;;;3.00;100.00;99946.58;1680186;84;21612;-63
2021/03/19 13:41:25;;;;;;;254.90;115.80;;;;;;;3.00;100.00;99943.20;1679916;84;21166;-62
2021/03/19 13:43:54;;;;;;;149.95;79.82;;;;;;;3.04;100.00;99944.06;1680703;83;21210;-69
2021/03/19 13:46:23;;;;;;;159.48;80.28;;;;;;;3.09;100.00;99937.99;1681365;83;21222;-62
2021/03/19 13:48:51;;;;;;;532.98;337.02;;;;;;;3.05;100.00;99944.38;1680397;83;21167;-62
2021/03/19 13:51:20;;;;;;;349.25;196.07;;;;;;;3.02;100.00;99941.28;1680590;84;22789;-61
2021/03/19 13:54:02;;;;;;;88.67;39.98;;;;;;;3.01;100.00;99946.91;1649547;84;21108;-61
2021/03/19 13:56:31;;;;;;;42.27;18.07;;;;;;;2.99;100.00;99944.94;1644414;85;21083;-61
2021/03/19 13:59:02;;;;;;;38.78;16.35;;;;;;;2.99;100.00;99941.55;1644679;85;21198;-61
2021/03/19 14:01:31;;;;;;;63.60;27.30;;;;;;;2.95;100.00;99943.60;1665569;84;21215;-61
2021/03/19 14:04:00;;;;;;;118.67;48.87;;;;;;;2.88;100.00;99941.28;1665695;84;23507;-61
2021/03/19 14:06:29;;;;;;;172.60;60.50;;;;;;;2.84;100.00;99940.75;1665128;84;21211;-61
2021/03/19 14:08:58;;;;;;;52.08;20.88;;;;;;;2.81;100.00;99938.45;1665025;84;21191;-61
2021/03/19 14:11:26;;;;;;;126.67;36.00;;;;;;;2.82;100.00;99944.41;1641100;87;21213;-60
2021/03/19 14:13:56;;;;;;;75.97;21.95;;;;;;;2.79;100.00;99941.63;1619765;87;21645;-67
2021/03/19 14:16:25;;;;;;;186.03;53.33;;;;;;;2.77;100.00;99942.74;1617816;87;22127;-59
2021/03/19 14:18:54;;;;;;;110.52;34.90;;;;;;;2.75;100.00;99945.44;1665627;84;21152;-60
2021/03/19 14:21:23;;;;;;;348.40;149.93;;;;;;;2.73;100.00;99949.09;1665521;85;21152;-62
2021/03/19 14:23:52;;;;;;;579.23;235.32;;;;;;;2.68;100.00;99954.66;1664838;84;21176;-60
2021/03/19 14:26:20;;;;;;;356.10;120.75;;;;;;;2.62;100.00;99952.19;1665561;84;21650;-60
2021/03/19 14:28:50;;;;;;;182.57;67.00;;;;;;;2.61;100.00;99958.30;1665769;84;21555;-61
2021/03/19 14:31:24;;;;;;;134.05;62.35;;;;;;;2.57;100.00;99954.34;1665794;84;28496;-61
2021/03/19 14:33:53;;;;;;;45.92;16.97;;;;;;;2.51;100.00;99960.55;1664936;84;21160;-60
2021/03/19 14:36:23;;;;;;;31.65;10.60;;;;;;;2.46;100.00;99960.12;1665009;84;21160;-61
2021/03/19 14:38:51;;;;;;;32.93;9.80;;;;;;;2.37;100.00;99966.91;1667982;84;21097;-62
2021/03/19 14:41:20;;;;;;;30.57;10.88;;;;;;;2.29;100.00;99974.51;1665519;84;21393;-61
2021/03/19 14:43:49;;;;;;;33.67;11.08;;;;;;;2.21;100.00;99974.38;1665243;84;20946;-61
2021/03/19 14:46:21;;;;;;;36.65;10.65;;;;;;;2.13;100.00;99976.34;1661247;84;21218;-62
2021/03/19 14:48:50;;;;;;;35.15;10.28;;;;;;;2.08;100.00;99974.16;1665655;84;21148;-65
2021/03/19 14:51:18;;;;;;;31.55;10.90;;;;;;;2.01;100.00;99974.38;1665460;84;21566;-69
2021/03/19 14:53:50;;;;;;;36.40;10.58;;;;;;;1.97;100.00;99979.45;1679893;84;21881;-65
2021/03/19 14:56:18;;;;;;;;;;;;;;;1.94;100.00;99981.00;1688667;84;21607;-62
2021/03/19 14:58:47;;;;;;;30.88;9.95;;;;;;;1.90;100.00;99990.73;1687057;84;20237;-63
2021/03/19 15:01:15;;;;;;;32.30;10.13;;;;;;;1.87;100.00;99988.91;1686740;84;21140;-65
2021/03/19 15:03:44;;;;;;;46.45;12.18;;;;;;;1.87;100.00;99991.48;1684918;84;21196;-62
2021/03/19 15:06:13;;;;;;;29.65;9.68;;;;;;;1.87;100.00;99996.14;1688146;84;22536;-60
2021/03/19 15:08:42;;;;;;;33.85;10.63;;;;;;;1.88;100.00;99999.52;1688074;83;21593;-62
2021/03/19 15:11:10;;;;;;;42.15;10.63;;;;;;;1.85;100.00;100003.16;1685112;84;21199;-62
2021/03/19 15:13:39;;;;;;;37.03;11.15;;;;;;;1.83;100.00;100004.25;1688064;83;21671;-60
2021/03/19 15:16:08;;;;;;;32.10;11.63;;;;;;;1.83;100.00;100005.06;1686639;84;21210;-61
2021/03/19 15:18:36;;;;;;;42.13;12.80;;;;;;;1.85;100.00;100007.48;1687858;84;21376;-69
2021/03/19 15:21:09;;;;;;;44.33;13.50;;;;;;;1.82;100.00;100014.17;1687359;83;21107;-61
2021/03/19 15:23:41;;;;;;;35.55;11.30;;;;;;;1.75;100.00;100015.67;1686892;84;21120;-60
2021/03/19 15:26:13;;;;;;;42.65;13.20;;;;;;;1.70;100.00;100026.32;1685188;84;21238;-60
2021/03/19 15:28:41;;;;;;;28.85;10.63;;;;;;;1.65;100.00;100034.43;1684128;84;21171;-68
2021/03/19 15:31:10;;;;;;;34.63;12.75;;;;;;;1.64;100.00;100032.81;1687418;84;21378;-60
2021/03/19 15:33:39;;;;;;;44.50;12.47;;;;;;;1.63;100.00;100040.63;1686144;84;21176;-60
2021/03/19 15:36:09;;;;;;;38.65;11.20;;;;;;;1.62;100.00;100045.44;1685413;84;21037;-61
2021/03/19 15:38:38;;;;;;;36.88;12.03;;;;;;;1.58;100.00;100039.75;1687349;84;21582;-69
2021/03/19 15:41:07;;;;;;;48.80;13.32;;;;;;;1.55;100.00;100045.61;1686800;84;21255;-62
2021/03/19 15:43:36;;;;;;;42.25;15.13;;;;;;;1.51;100.00;100045.53;1687119;84;21379;-61
2021/03/19 15:46:05;;;;;;;42.25;15.03;;;;;;;1.48;100.00;100053.05;1688003;84;21515;-61
2021/03/19 15:48:34;;;;;;;38.67;12.73;;;;;;;1.45;100.00;100059.72;1687372;84;21566;-67
2021/03/19 15:51:05;;;;;;;39.35;12.35;;;;;;;1.41;100.00;100059.64;1685995;83;21254;-61
2021/03/19 15:53:37;;;;;;;44.50;12.95;;;;;;;1.39;100.00;100062.31;1688412;84;21199;-65
2021/03/19 15:56:09;;;;;;;39.25;12.25;;;;;;;1.36;100.00;100061.28;1688517;84;22000;-61
2021/03/19 15:58:37;;;;;;;;;;;;;;;1.34;100.00;100067.52;1689032;83;21576;-61
2021/03/19 16:01:06;;;;;;;38.65;13.72;;;;;;;1.31;100.00;100063.91;1688267;84;20306;-60
2021/03/19 16:03:35;;;;;;;32.10;11.85;;;;;;;1.25;100.00;100067.81;1687683;84;21212;-61
2021/03/19 16:06:05;;;;;;;47.48;14.10;;;;;;;1.19;100.00;100072.97;1687747;84;21586;-60
2021/03/19 16:08:33;;;;;;;71.35;14.43;;;;;;;1.12;100.00;100076.17;1685171;84;22136;-61